sensor_id;sensor_type;location;lat;lon;timestamp;P1;durP1;ratioP1;P2;durP2;ratioP2
47589;SDS011;33316;52.298;9.056;2022-12-07T00:01:22;8.45;;;5.75;;
47589;SDS011;33316;52.298;9.056;2022-12-07T00:03:51;9.68;;;6.30;;
47589;SDS011;33316;52.298;9.056;2022-12-07T00:06:20;10.55;;;6.72;;
47589;SDS011;33316;52.298;9.056;2022-12-07T00:08:47;9.00;;;6.25;;
47589;SDS011;33316;52.298;9.056;2022-12-07T00:11:15;9.85;;;6.47;;
47589;SDS011;33316;52.298;9.056;2022-12-07T00:13:43;9.38;;;6.72;;
47589;SDS011;33316;52.298;9.056;2022-12-07T00:16:11;9.57;;;6.47;;
47589;SDS011;33316;52.298;9.056;2022-12-07T00:18:39;8.15;;;5.70;;
47589;SDS011;33316;52.298;9.056;2022-12-07T00:21:08;9.75;;;6.78;;
47589;SDS011;33316;52.298;9.056;2022-12-07T00:23:38;10.25;;;6.57;;
47589;SDS011;33316;52.298;9.056;2022-12-07T00:26:05;9.20;;;6.68;;
47589;SDS011;33316;52.298;9.056;2022-12-07T00:28:33;9.02;;;6.50;;
47589;SDS011;33316;52.298;9.056;2022-12-07T00:31:01;8.98;;;6.43;;
47589;SDS011;33316;52.298;9.056;2022-12-07T00:33:29;10.25;;;6.85;;
47589;SDS011;33316;52.298;9.056;2022-12-07T00:35:56;8.20;;;6.05;;
47589;SDS011;33316;52.298;9.056;2022-12-07T00:38:23;8.00;;;5.68;;
47589;SDS011;33316;52.298;9.056;2022-12-07T00:40:55;9.60;;;6.65;;
47589;SDS011;33316;52.298;9.056;2022-12-07T00:43:22;9.82;;;6.85;;
47589;SDS011;33316;52.298;9.056;2022-12-07T00:45:49;10.95;;;6.85;;
47589;SDS011;33316;52.298;9.056;2022-12-07T00:48:16;11.13;;;7.70;;
47589;SDS011;33316;52.298;9.056;2022-12-07T00:50:43;12.02;;;7.60;;
47589;SDS011;33316;52.298;9.056;2022-12-07T00:53:10;8.85;;;6.60;;
47589;SDS011;33316;52.298;9.056;2022-12-07T00:55:37;9.80;;;6.18;;
47589;SDS011;33316;52.298;9.056;2022-12-07T00:58:05;8.27;;;5.75;;
47589;SDS011;33316;52.298;9.056;2022-12-07T01:00:32;9.75;;;6.90;;
47589;SDS011;33316;52.298;9.056;2022-12-07T01:03:00;11.45;;;7.85;;
47589;SDS011;33316;52.298;9.056;2022-12-07T01:05:27;9.38;;;7.18;;
47589;SDS011;33316;52.298;9.056;2022-12-07T01:07:54;8.90;;;6.60;;
47589;SDS011;33316;52.298;9.056;2022-12-07T01:10:21;9.30;;;5.93;;
47589;SDS011;33316;52.298;9.056;2022-12-07T01:12:48;9.40;;;6.22;;
47589;SDS011;33316;52.298;9.056;2022-12-07T01:15:16;9.75;;;6.93;;
47589;SDS011;33316;52.298;9.056;2022-12-07T01:17:43;10.32;;;6.75;;
47589;SDS011;33316;52.298;9.056;2022-12-07T01:20:10;9.20;;;6.55;;
47589;SDS011;33316;52.298;9.056;2022-12-07T01:22:38;9.35;;;6.78;;
47589;SDS011;33316;52.298;9.056;2022-12-07T01:25:06;11.38;;;7.30;;
47589;SDS011;33316;52.298;9.056;2022-12-07T01:27:33;11.30;;;7.05;;
47589;SDS011;33316;52.298;9.056;2022-12-07T01:30:01;10.18;;;7.43;;
47589;SDS011;33316;52.298;9.056;2022-12-07T01:32:32;9.45;;;7.20;;
47589;SDS011;33316;52.298;9.056;2022-12-07T01:34:59;9.52;;;6.57;;
47589;SDS011;33316;52.298;9.056;2022-12-07T01:37:26;8.65;;;7.00;;
47589;SDS011;33316;52.298;9.056;2022-12-07T01:39:53;10.48;;;7.35;;
47589;SDS011;33316;52.298;9.056;2022-12-07T01:42:20;10.18;;;6.85;;
47589;SDS011;33316;52.298;9.056;2022-12-07T01:47:53;9.20;;;6.47;;
47589;SDS011;33316;52.298;9.056;2022-12-07T01:50:23;8.52;;;6.50;;
47589;SDS011;33316;52.298;9.056;2022-12-07T01:52:53;10.38;;;7.13;;
47589;SDS011;33316;52.298;9.056;2022-12-07T01:55:22;11.00;;;7.20;;
47589;SDS011;33316;52.298;9.056;2022-12-07T01:57:50;9.00;;;6.82;;
47589;SDS011;33316;52.298;9.056;2022-12-07T02:00:19;10.02;;;7.07;;
47589;SDS011;33316;52.298;9.056;2022-12-07T02:02:48;9.32;;;6.82;;
47589;SDS011;33316;52.298;9.056;2022-12-07T02:05:20;10.35;;;6.55;;
47589;SDS011;33316;52.298;9.056;2022-12-07T02:07:47;10.00;;;6.63;;
47589;SDS011;33316;52.298;9.056;2022-12-07T02:10:17;10.20;;;6.55;;
47589;SDS011;33316;52.298;9.056;2022-12-07T02:12:46;11.30;;;6.45;;
47589;SDS011;33316;52.298;9.056;2022-12-07T02:15:16;9.13;;;6.95;;
47589;SDS011;33316;52.298;9.056;2022-12-07T02:17:48;8.93;;;5.10;;
47589;SDS011;33316;52.298;9.056;2022-12-07T02:20:23;10.05;;;7.03;;
47589;SDS011;33316;52.298;9.056;2022-12-07T02:23:01;10.93;;;6.82;;
47589;SDS011;33316;52.298;9.056;2022-12-07T02:26:12;8.73;;;5.97;;
47589;SDS011;33316;52.298;9.056;2022-12-07T02:28:58;8.55;;;5.78;;
47589;SDS011;33316;52.298;9.056;2022-12-07T02:31:38;7.95;;;5.68;;
47589;SDS011;33316;52.298;9.056;2022-12-07T02:34:14;10.10;;;6.75;;
47589;SDS011;33316;52.298;9.056;2022-12-07T02:36:51;8.43;;;6.07;;
47589;SDS011;33316;52.298;9.056;2022-12-07T02:39:25;7.65;;;5.13;;
47589;SDS011;33316;52.298;9.056;2022-12-07T02:41:58;7.10;;;4.50;;
47589;SDS011;33316;52.298;9.056;2022-12-07T02:44:35;5.72;;;4.32;;
47589;SDS011;33316;52.298;9.056;2022-12-07T02:47:03;8.05;;;5.32;;
47589;SDS011;33316;52.298;9.056;2022-12-07T02:49:33;7.90;;;5.10;;
47589;SDS011;33316;52.298;9.056;2022-12-07T02:52:01;7.25;;;5.20;;
47589;SDS011;33316;52.298;9.056;2022-12-07T02:54:28;7.80;;;4.88;;
47589;SDS011;33316;52.298;9.056;2022-12-07T02:56:56;5.93;;;4.63;;
47589;SDS011;33316;52.298;9.056;2022-12-07T02:59:33;7.13;;;4.57;;
47589;SDS011;33316;52.298;9.056;2022-12-07T03:02:15;6.82;;;4.80;;
47589;SDS011;33316;52.298;9.056;2022-12-07T03:04:52;9.40;;;5.35;;
47589;SDS011;33316;52.298;9.056;2022-12-07T03:07:26;7.50;;;4.97;;
47589;SDS011;33316;52.298;9.056;2022-12-07T03:10:03;7.25;;;4.82;;
47589;SDS011;33316;52.298;9.056;2022-12-07T03:12:36;7.65;;;5.07;;
47589;SDS011;33316;52.298;9.056;2022-12-07T03:15:12;8.27;;;5.45;;
47589;SDS011;33316;52.298;9.056;2022-12-07T03:17:42;6.80;;;4.60;;
47589;SDS011;33316;52.298;9.056;2022-12-07T03:20:12;7.00;;;4.38;;
47589;SDS011;33316;52.298;9.056;2022-12-07T03:22:42;9.10;;;5.30;;
47589;SDS011;33316;52.298;9.056;2022-12-07T03:25:11;8.02;;;4.97;;
47589;SDS011;33316;52.298;9.056;2022-12-07T03:27:42;7.43;;;4.90;;
47589;SDS011;33316;52.298;9.056;2022-12-07T03:30:14;7.07;;;4.68;;
47589;SDS011;33316;52.298;9.056;2022-12-07T03:32:45;7.60;;;4.80;;
47589;SDS011;33316;52.298;9.056;2022-12-07T03:35:16;8.18;;;5.00;;
47589;SDS011;33316;52.298;9.056;2022-12-07T03:40:16;6.22;;;3.63;;
47589;SDS011;33316;52.298;9.056;2022-12-07T03:42:48;8.18;;;4.63;;
47589;SDS011;33316;52.298;9.056;2022-12-07T03:45:18;6.57;;;4.78;;
47589;SDS011;33316;52.298;9.056;2022-12-07T03:47:50;7.50;;;4.45;;
47589;SDS011;33316;52.298;9.056;2022-12-07T03:50:28;8.70;;;4.50;;
47589;SDS011;33316;52.298;9.056;2022-12-07T03:53:03;7.75;;;4.43;;
47589;SDS011;33316;52.298;9.056;2022-12-07T03:55:35;6.45;;;4.18;;
47589;SDS011;33316;52.298;9.056;2022-12-07T03:58:05;8.50;;;4.68;;
47589;SDS011;33316;52.298;9.056;2022-12-07T04:00:36;8.65;;;4.85;;
47589;SDS011;33316;52.298;9.056;2022-12-07T04:03:04;9.15;;;4.75;;
47589;SDS011;33316;52.298;9.056;2022-12-07T04:05:31;6.88;;;4.70;;
47589;SDS011;33316;52.298;9.056;2022-12-07T04:07:57;7.28;;;4.53;;
47589;SDS011;33316;52.298;9.056;2022-12-07T04:10:24;9.10;;;4.28;;
47589;SDS011;33316;52.298;9.056;2022-12-07T04:12:51;9.02;;;4.43;;
47589;SDS011;33316;52.298;9.056;2022-12-07T04:15:18;8.15;;;4.18;;
47589;SDS011;33316;52.298;9.056;2022-12-07T04:17:46;5.50;;;3.70;;
47589;SDS011;33316;52.298;9.056;2022-12-07T04:20:13;8.35;;;4.68;;
47589;SDS011;33316;52.298;9.056;2022-12-07T04:22:39;6.38;;;4.32;;
47589;SDS011;33316;52.298;9.056;2022-12-07T04:25:06;8.05;;;3.85;;
47589;SDS011;33316;52.298;9.056;2022-12-07T04:27:33;5.57;;;3.25;;
47589;SDS011;33316;52.298;9.056;2022-12-07T04:30:00;7.95;;;3.70;;
47589;SDS011;33316;52.298;9.056;2022-12-07T04:32:27;4.95;;;3.05;;
47589;SDS011;33316;52.298;9.056;2022-12-07T04:34:55;5.28;;;3.22;;
47589;SDS011;33316;52.298;9.056;2022-12-07T04:37:22;4.30;;;3.03;;
47589;SDS011;33316;52.298;9.056;2022-12-07T04:39:49;5.97;;;2.90;;
47589;SDS011;33316;52.298;9.056;2022-12-07T04:42:16;4.13;;;2.58;;
47589;SDS011;33316;52.298;9.056;2022-12-07T04:44:42;6.80;;;3.15;;
47589;SDS011;33316;52.298;9.056;2022-12-07T04:47:09;6.40;;;2.67;;
47589;SDS011;33316;52.298;9.056;2022-12-07T04:49:36;3.03;;;2.20;;
47589;SDS011;33316;52.298;9.056;2022-12-07T04:52:04;5.22;;;2.60;;
47589;SDS011;33316;52.298;9.056;2022-12-07T04:54:31;5.90;;;2.63;;
47589;SDS011;33316;52.298;9.056;2022-12-07T04:56:58;3.03;;;1.95;;
47589;SDS011;33316;52.298;9.056;2022-12-07T04:59:25;3.55;;;1.90;;
47589;SDS011;33316;52.298;9.056;2022-12-07T05:01:52;4.03;;;1.80;;
47589;SDS011;33316;52.298;9.056;2022-12-07T05:04:18;5.38;;;1.90;;
47589;SDS011;33316;52.298;9.056;2022-12-07T05:06:45;3.60;;;1.88;;
47589;SDS011;33316;52.298;9.056;2022-12-07T05:09:13;5.03;;;1.65;;
47589;SDS011;33316;52.298;9.056;2022-12-07T05:11:40;4.30;;;1.90;;
47589;SDS011;33316;52.298;9.056;2022-12-07T05:14:10;5.25;;;1.80;;
47589;SDS011;33316;52.298;9.056;2022-12-07T05:16:38;4.68;;;1.90;;
47589;SDS011;33316;52.298;9.056;2022-12-07T05:19:06;4.20;;;2.30;;
47589;SDS011;33316;52.298;9.056;2022-12-07T05:21:33;4.30;;;1.58;;
47589;SDS011;33316;52.298;9.056;2022-12-07T05:24:00;3.15;;;1.80;;
47589;SDS011;33316;52.298;9.056;2022-12-07T05:26:29;4.20;;;1.90;;
47589;SDS011;33316;52.298;9.056;2022-12-07T05:28:56;3.42;;;1.67;;
47589;SDS011;33316;52.298;9.056;2022-12-07T05:31:23;4.38;;;2.03;;
47589;SDS011;33316;52.298;9.056;2022-12-07T05:33:51;2.45;;;1.65;;
47589;SDS011;33316;52.298;9.056;2022-12-07T05:36:18;2.75;;;1.50;;
47589;SDS011;33316;52.298;9.056;2022-12-07T05:38:45;3.85;;;1.73;;
47589;SDS011;33316;52.298;9.056;2022-12-07T05:41:13;2.83;;;1.40;;
47589;SDS011;33316;52.298;9.056;2022-12-07T05:43:56;3.35;;;1.50;;
47589;SDS011;33316;52.298;9.056;2022-12-07T05:46:23;3.00;;;1.38;;
47589;SDS011;33316;52.298;9.056;2022-12-07T05:48:50;3.28;;;1.20;;
47589;SDS011;33316;52.298;9.056;2022-12-07T05:51:17;3.47;;;1.58;;
47589;SDS011;33316;52.298;9.056;2022-12-07T05:53:43;3.15;;;1.48;;
47589;SDS011;33316;52.298;9.056;2022-12-07T05:56:10;1.80;;;1.25;;
47589;SDS011;33316;52.298;9.056;2022-12-07T05:58:37;4.95;;;1.45;;
47589;SDS011;33316;52.298;9.056;2022-12-07T06:01:23;2.08;;;1.02;;
47589;SDS011;33316;52.298;9.056;2022-12-07T06:03:50;2.58;;;1.20;;
47589;SDS011;33316;52.298;9.056;2022-12-07T06:06:16;3.50;;;1.10;;
47589;SDS011;33316;52.298;9.056;2022-12-07T06:08:43;5.53;;;1.30;;
47589;SDS011;33316;52.298;9.056;2022-12-07T06:11:10;1.98;;;1.33;;
47589;SDS011;33316;52.298;9.056;2022-12-07T06:13:57;2.03;;;1.10;;
47589;SDS011;33316;52.298;9.056;2022-12-07T06:16:25;5.30;;;1.27;;
47589;SDS011;33316;52.298;9.056;2022-12-07T06:18:51;3.60;;;1.20;;
47589;SDS011;33316;52.298;9.056;2022-12-07T06:21:18;2.90;;;1.10;;
47589;SDS011;33316;52.298;9.056;2022-12-07T06:23:45;1.77;;;1.20;;
47589;SDS011;33316;52.298;9.056;2022-12-07T06:26:13;3.83;;;1.17;;
47589;SDS011;33316;52.298;9.056;2022-12-07T06:28:39;2.30;;;1.27;;
47589;SDS011;33316;52.298;9.056;2022-12-07T06:31:06;2.15;;;1.30;;
47589;SDS011;33316;52.298;9.056;2022-12-07T06:33:35;3.75;;;1.20;;
47589;SDS011;33316;52.298;9.056;2022-12-07T06:36:02;2.13;;;1.08;;
47589;SDS011;33316;52.298;9.056;2022-12-07T06:38:29;3.83;;;0.98;;
47589;SDS011;33316;52.298;9.056;2022-12-07T06:40:55;2.78;;;1.00;;
47589;SDS011;33316;52.298;9.056;2022-12-07T06:43:22;2.75;;;0.90;;
47589;SDS011;33316;52.298;9.056;2022-12-07T06:45:49;1.55;;;0.82;;
47589;SDS011;33316;52.298;9.056;2022-12-07T06:48:16;2.55;;;0.95;;
47589;SDS011;33316;52.298;9.056;2022-12-07T06:50:45;2.38;;;0.80;;
47589;SDS011;33316;52.298;9.056;2022-12-07T06:53:12;4.55;;;1.33;;
47589;SDS011;33316;52.298;9.056;2022-12-07T06:55:38;3.88;;;1.02;;
47589;SDS011;33316;52.298;9.056;2022-12-07T06:58:05;1.42;;;1.00;;
47589;SDS011;33316;52.298;9.056;2022-12-07T07:00:32;4.97;;;1.10;;
47589;SDS011;33316;52.298;9.056;2022-12-07T07:02:59;3.17;;;1.23;;
47589;SDS011;33316;52.298;9.056;2022-12-07T07:05:26;2.92;;;1.10;;
47589;SDS011;33316;52.298;9.056;2022-12-07T07:07:54;1.98;;;1.08;;
47589;SDS011;33316;52.298;9.056;2022-12-07T07:10:21;3.83;;;1.20;;
47589;SDS011;33316;52.298;9.056;2022-12-07T07:12:48;3.33;;;1.10;;
47589;SDS011;33316;52.298;9.056;2022-12-07T07:15:15;3.92;;;0.85;;
47589;SDS011;33316;52.298;9.056;2022-12-07T07:17:42;4.43;;;1.02;;
47589;SDS011;33316;52.298;9.056;2022-12-07T07:20:09;2.92;;;1.05;;
47589;SDS011;33316;52.298;9.056;2022-12-07T07:22:37;2.67;;;0.98;;
47589;SDS011;33316;52.298;9.056;2022-12-07T07:25:05;3.05;;;0.90;;
47589;SDS011;33316;52.298;9.056;2022-12-07T07:27:32;2.08;;;0.73;;
47589;SDS011;33316;52.298;9.056;2022-12-07T07:29:59;2.90;;;1.05;;
47589;SDS011;33316;52.298;9.056;2022-12-07T07:32:26;2.45;;;0.85;;
47589;SDS011;33316;52.298;9.056;2022-12-07T07:34:53;4.15;;;1.13;;
47589;SDS011;33316;52.298;9.056;2022-12-07T07:37:19;4.53;;;0.90;;
47589;SDS011;33316;52.298;9.056;2022-12-07T07:39:46;0.90;;;0.70;;
47589;SDS011;33316;52.298;9.056;2022-12-07T07:42:14;2.42;;;0.80;;
47589;SDS011;33316;52.298;9.056;2022-12-07T07:44:41;2.83;;;0.95;;
47589;SDS011;33316;52.298;9.056;2022-12-07T07:47:08;3.17;;;1.02;;
47589;SDS011;33316;52.298;9.056;2022-12-07T07:49:35;4.95;;;1.00;;
47589;SDS011;33316;52.298;9.056;2022-12-07T07:52:02;4.15;;;1.05;;
47589;SDS011;33316;52.298;9.056;2022-12-07T07:54:28;2.05;;;0.90;;
47589;SDS011;33316;52.298;9.056;2022-12-07T07:56:55;2.78;;;0.93;;
47589;SDS011;33316;52.298;9.056;2022-12-07T07:59:23;4.25;;;1.25;;
47589;SDS011;33316;52.298;9.056;2022-12-07T08:01:50;1.75;;;0.85;;
47589;SDS011;33316;52.298;9.056;2022-12-07T08:04:17;3.72;;;1.15;;
47589;SDS011;33316;52.298;9.056;2022-12-07T08:06:44;4.43;;;1.30;;
47589;SDS011;33316;52.298;9.056;2022-12-07T08:09:11;1.98;;;1.17;;
47589;SDS011;33316;52.298;9.056;2022-12-07T08:11:38;4.75;;;1.13;;
47589;SDS011;33316;52.298;9.056;2022-12-07T08:14:05;3.35;;;1.27;;
47589;SDS011;33316;52.298;9.056;2022-12-07T08:16:33;6.43;;;1.45;;
47589;SDS011;33316;52.298;9.056;2022-12-07T08:19:00;2.17;;;0.70;;
47589;SDS011;33316;52.298;9.056;2022-12-07T08:21:26;4.40;;;1.20;;
47589;SDS011;33316;52.298;9.056;2022-12-07T08:23:53;4.25;;;1.00;;
47589;SDS011;33316;52.298;9.056;2022-12-07T08:26:20;2.00;;;0.80;;
47589;SDS011;33316;52.298;9.056;2022-12-07T08:28:47;2.53;;;0.80;;
47589;SDS011;33316;52.298;9.056;2022-12-07T08:31:14;7.32;;;1.20;;
47589;SDS011;33316;52.298;9.056;2022-12-07T08:33:44;3.08;;;0.80;;
47589;SDS011;33316;52.298;9.056;2022-12-07T08:36:12;3.70;;;0.80;;
47589;SDS011;33316;52.298;9.056;2022-12-07T08:38:39;1.67;;;0.90;;
47589;SDS011;33316;52.298;9.056;2022-12-07T08:41:07;3.20;;;0.95;;
47589;SDS011;33316;52.298;9.056;2022-12-07T08:43:34;3.55;;;1.05;;
47589;SDS011;33316;52.298;9.056;2022-12-07T08:46:04;3.30;;;1.00;;
47589;SDS011;33316;52.298;9.056;2022-12-07T08:48:36;3.42;;;0.77;;
47589;SDS011;33316;52.298;9.056;2022-12-07T08:51:08;2.10;;;0.80;;
47589;SDS011;33316;52.298;9.056;2022-12-07T08:53:35;3.47;;;0.98;;
47589;SDS011;33316;52.298;9.056;2022-12-07T08:56:04;2.25;;;0.82;;
47589;SDS011;33316;52.298;9.056;2022-12-07T08:58:32;2.88;;;0.85;;
47589;SDS011;33316;52.298;9.056;2022-12-07T09:00:59;3.17;;;1.00;;
47589;SDS011;33316;52.298;9.056;2022-12-07T09:03:26;2.28;;;0.80;;
47589;SDS011;33316;52.298;9.056;2022-12-07T09:05:52;2.35;;;0.95;;
47589;SDS011;33316;52.298;9.056;2022-12-07T09:08:21;2.05;;;1.23;;
47589;SDS011;33316;52.298;9.056;2022-12-07T09:10:52;4.63;;;1.70;;
47589;SDS011;33316;52.298;9.056;2022-12-07T09:13:19;3.60;;;1.10;;
47589;SDS011;33316;52.298;9.056;2022-12-07T09:15:46;3.25;;;1.10;;
47589;SDS011;33316;52.298;9.056;2022-12-07T09:18:12;4.18;;;1.05;;
47589;SDS011;33316;52.298;9.056;2022-12-07T09:20:39;4.07;;;0.90;;
47589;SDS011;33316;52.298;9.056;2022-12-07T09:23:06;1.65;;;1.00;;
47589;SDS011;33316;52.298;9.056;2022-12-07T09:25:34;1.85;;;0.80;;
47589;SDS011;33316;52.298;9.056;2022-12-07T09:28:01;3.63;;;1.30;;
47589;SDS011;33316;52.298;9.056;2022-12-07T09:30:28;3.28;;;1.10;;
47589;SDS011;33316;52.298;9.056;2022-12-07T09:32:56;4.45;;;1.33;;
47589;SDS011;33316;52.298;9.056;2022-12-07T09:35:23;2.33;;;0.95;;
47589;SDS011;33316;52.298;9.056;2022-12-07T09:37:52;2.95;;;0.95;;
47589;SDS011;33316;52.298;9.056;2022-12-07T09:40:19;3.08;;;0.95;;
47589;SDS011;33316;52.298;9.056;2022-12-07T09:42:49;4.47;;;1.40;;
47589;SDS011;33316;52.298;9.056;2022-12-07T09:45:21;2.65;;;1.10;;
47589;SDS011;33316;52.298;9.056;2022-12-07T09:47:49;4.27;;;1.27;;
47589;SDS011;33316;52.298;9.056;2022-12-07T09:50:17;4.63;;;1.30;;
47589;SDS011;33316;52.298;9.056;2022-12-07T09:52:47;6.73;;;1.47;;
47589;SDS011;33316;52.298;9.056;2022-12-07T09:55:15;4.35;;;1.15;;
47589;SDS011;33316;52.298;9.056;2022-12-07T10:00:14;1.25;;;0.77;;
47589;SDS011;33316;52.298;9.056;2022-12-07T10:02:44;2.92;;;0.90;;
47589;SDS011;33316;52.298;9.056;2022-12-07T10:05:16;2.13;;;0.70;;
47589;SDS011;33316;52.298;9.056;2022-12-07T10:07:47;3.47;;;0.93;;
47589;SDS011;33316;52.298;9.056;2022-12-07T10:10:15;3.00;;;1.17;;
47589;SDS011;33316;52.298;9.056;2022-12-07T10:12:54;2.22;;;0.82;;
47589;SDS011;33316;52.298;9.056;2022-12-07T10:15:24;10.20;;;1.08;;
47589;SDS011;33316;52.298;9.056;2022-12-07T10:18:17;4.03;;;1.00;;
47589;SDS011;33316;52.298;9.056;2022-12-07T10:20:46;3.05;;;0.90;;
47589;SDS011;33316;52.298;9.056;2022-12-07T10:23:14;2.22;;;0.77;;
47589;SDS011;33316;52.298;9.056;2022-12-07T10:25:43;3.25;;;1.20;;
47589;SDS011;33316;52.298;9.056;2022-12-07T10:28:13;2.20;;;1.02;;
47589;SDS011;33316;52.298;9.056;2022-12-07T10:30:53;3.58;;;1.02;;
47589;SDS011;33316;52.298;9.056;2022-12-07T10:33:30;3.03;;;0.90;;
47589;SDS011;33316;52.298;9.056;2022-12-07T10:36:15;3.38;;;0.88;;
47589;SDS011;33316;52.298;9.056;2022-12-07T10:38:45;3.80;;;0.95;;
47589;SDS011;33316;52.298;9.056;2022-12-07T10:41:13;3.47;;;0.98;;
47589;SDS011;33316;52.298;9.056;2022-12-07T10:43:46;2.40;;;1.05;;
47589;SDS011;33316;52.298;9.056;2022-12-07T10:46:22;3.15;;;1.30;;
47589;SDS011;33316;52.298;9.056;2022-12-07T10:49:05;2.55;;;0.98;;
47589;SDS011;33316;52.298;9.056;2022-12-07T10:52:07;5.10;;;1.10;;
47589;SDS011;33316;52.298;9.056;2022-12-07T10:54:44;4.22;;;1.08;;
47589;SDS011;33316;52.298;9.056;2022-12-07T10:57:23;2.60;;;0.88;;
47589;SDS011;33316;52.298;9.056;2022-12-07T11:00:09;1.70;;;0.68;;
47589;SDS011;33316;52.298;9.056;2022-12-07T11:02:49;2.60;;;0.90;;
47589;SDS011;33316;52.298;9.056;2022-12-07T11:05:35;6.97;;;1.05;;
47589;SDS011;33316;52.298;9.056;2022-12-07T11:08:11;2.28;;;0.80;;
47589;SDS011;33316;52.298;9.056;2022-12-07T11:10:44;7.50;;;1.45;;
47589;SDS011;33316;52.298;9.056;2022-12-07T11:13:25;4.25;;;1.30;;
47589;SDS011;33316;52.298;9.056;2022-12-07T11:16:03;6.75;;;1.48;;
47589;SDS011;33316;52.298;9.056;2022-12-07T11:18:45;5.18;;;1.50;;
47589;SDS011;33316;52.298;9.056;2022-12-07T11:21:23;5.25;;;1.40;;
47589;SDS011;33316;52.298;9.056;2022-12-07T11:23:56;7.25;;;1.75;;
47589;SDS011;33316;52.298;9.056;2022-12-07T11:26:34;3.38;;;1.30;;
47589;SDS011;33316;52.298;9.056;2022-12-07T11:29:17;11.20;;;1.52;;
47589;SDS011;33316;52.298;9.056;2022-12-07T11:31:57;4.05;;;1.40;;
47589;SDS011;33316;52.298;9.056;2022-12-07T11:34:35;2.42;;;1.13;;
47589;SDS011;33316;52.298;9.056;2022-12-07T11:37:10;2.65;;;1.27;;
47589;SDS011;33316;52.298;9.056;2022-12-07T11:39:41;2.05;;;1.17;;
47589;SDS011;33316;52.298;9.056;2022-12-07T11:42:14;2.90;;;1.48;;
47589;SDS011;33316;52.298;9.056;2022-12-07T11:44:48;3.47;;;1.20;;
47589;SDS011;33316;52.298;9.056;2022-12-07T11:47:20;2.47;;;0.98;;
47589;SDS011;33316;52.298;9.056;2022-12-07T11:49:54;4.63;;;1.10;;
47589;SDS011;33316;52.298;9.056;2022-12-07T11:52:30;7.20;;;1.80;;
47589;SDS011;33316;52.298;9.056;2022-12-07T11:55:13;4.05;;;1.33;;
47589;SDS011;33316;52.298;9.056;2022-12-07T11:57:45;4.03;;;1.25;;
47589;SDS011;33316;52.298;9.056;2022-12-07T12:00:16;4.00;;;1.40;;
47589;SDS011;33316;52.298;9.056;2022-12-07T12:02:46;3.63;;;1.63;;
47589;SDS011;33316;52.298;9.056;2022-12-07T12:05:22;3.63;;;1.10;;
47589;SDS011;33316;52.298;9.056;2022-12-07T12:07:52;5.38;;;1.45;;
47589;SDS011;33316;52.298;9.056;2022-12-07T12:10:27;3.05;;;1.30;;
47589;SDS011;33316;52.298;9.056;2022-12-07T12:13:11;2.88;;;0.98;;
47589;SDS011;33316;52.298;9.056;2022-12-07T12:15:50;3.90;;;0.98;;
47589;SDS011;33316;52.298;9.056;2022-12-07T12:18:41;5.03;;;1.08;;
47589;SDS011;33316;52.298;9.056;2022-12-07T12:21:21;2.20;;;0.88;;
47589;SDS011;33316;52.298;9.056;2022-12-07T12:23:54;5.97;;;1.50;;
47589;SDS011;33316;52.298;9.056;2022-12-07T12:26:25;3.72;;;1.23;;
47589;SDS011;33316;52.298;9.056;2022-12-07T12:28:56;6.57;;;1.60;;
47589;SDS011;33316;52.298;9.056;2022-12-07T12:31:31;3.55;;;1.50;;
47589;SDS011;33316;52.298;9.056;2022-12-07T12:34:02;3.13;;;1.27;;
47589;SDS011;33316;52.298;9.056;2022-12-07T12:36:44;5.65;;;1.30;;
47589;SDS011;33316;52.298;9.056;2022-12-07T12:39:13;2.78;;;1.00;;
47589;SDS011;33316;52.298;9.056;2022-12-07T12:41:56;2.88;;;0.90;;
47589;SDS011;33316;52.298;9.056;2022-12-07T12:44:40;2.00;;;0.80;;
47589;SDS011;33316;52.298;9.056;2022-12-07T12:50:29;5.68;;;1.17;;
47589;SDS011;33316;52.298;9.056;2022-12-07T12:53:15;2.75;;;0.93;;
47589;SDS011;33316;52.298;9.056;2022-12-07T12:58:44;3.50;;;1.50;;
47589;SDS011;33316;52.298;9.056;2022-12-07T13:04:21;1.88;;;0.90;;
47589;SDS011;33316;52.298;9.056;2022-12-07T13:06:51;3.83;;;1.20;;
47589;SDS011;33316;52.298;9.056;2022-12-07T13:09:21;3.85;;;1.00;;
47589;SDS011;33316;52.298;9.056;2022-12-07T13:11:55;2.28;;;1.00;;
47589;SDS011;33316;52.298;9.056;2022-12-07T13:14:37;3.65;;;0.85;;
47589;SDS011;33316;52.298;9.056;2022-12-07T13:20:44;4.57;;;1.00;;
47589;SDS011;33316;52.298;9.056;2022-12-07T13:23:13;3.08;;;1.30;;
47589;SDS011;33316;52.298;9.056;2022-12-07T13:25:48;5.00;;;1.80;;
47589;SDS011;33316;52.298;9.056;2022-12-07T13:28:26;4.72;;;1.40;;
47589;SDS011;33316;52.298;9.056;2022-12-07T13:31:03;6.53;;;2.13;;
47589;SDS011;33316;52.298;9.056;2022-12-07T13:33:37;5.97;;;2.47;;
47589;SDS011;33316;52.298;9.056;2022-12-07T13:36:04;4.25;;;1.95;;
47589;SDS011;33316;52.298;9.056;2022-12-07T13:38:39;5.03;;;2.25;;
47589;SDS011;33316;52.298;9.056;2022-12-07T13:41:17;4.82;;;2.13;;
47589;SDS011;33316;52.298;9.056;2022-12-07T13:43:48;6.03;;;2.40;;
47589;SDS011;33316;52.298;9.056;2022-12-07T13:46:18;5.35;;;1.90;;
47589;SDS011;33316;52.298;9.056;2022-12-07T13:48:50;6.65;;;2.40;;
47589;SDS011;33316;52.298;9.056;2022-12-07T13:51:18;4.68;;;2.00;;
47589;SDS011;33316;52.298;9.056;2022-12-07T13:53:47;5.40;;;2.13;;
47589;SDS011;33316;52.298;9.056;2022-12-07T13:56:17;6.97;;;2.15;;
47589;SDS011;33316;52.298;9.056;2022-12-07T13:58:44;5.38;;;2.00;;
47589;SDS011;33316;52.298;9.056;2022-12-07T14:01:11;4.85;;;1.95;;
47589;SDS011;33316;52.298;9.056;2022-12-07T14:03:38;6.13;;;2.53;;
47589;SDS011;33316;52.298;9.056;2022-12-07T14:06:20;4.30;;;2.13;;
47589;SDS011;33316;52.298;9.056;2022-12-07T14:09:05;7.07;;;2.40;;
47589;SDS011;33316;52.298;9.056;2022-12-07T14:11:44;6.00;;;2.40;;
47589;SDS011;33316;52.298;9.056;2022-12-07T14:14:12;4.43;;;2.28;;
47589;SDS011;33316;52.298;9.056;2022-12-07T14:22:09;7.35;;;2.80;;
47589;SDS011;33316;52.298;9.056;2022-12-07T14:24:46;6.43;;;2.50;;
47589;SDS011;33316;52.298;9.056;2022-12-07T14:27:21;5.65;;;1.77;;
47589;SDS011;33316;52.298;9.056;2022-12-07T14:29:50;4.05;;;1.50;;
47589;SDS011;33316;52.298;9.056;2022-12-07T14:32:19;3.92;;;1.40;;
47589;SDS011;33316;52.298;9.056;2022-12-07T14:34:53;3.85;;;1.00;;
47589;SDS011;33316;52.298;9.056;2022-12-07T14:37:21;3.47;;;1.30;;
47589;SDS011;33316;52.298;9.056;2022-12-07T14:39:48;3.42;;;0.85;;
47589;SDS011;33316;52.298;9.056;2022-12-07T14:42:15;4.65;;;1.27;;
47589;SDS011;33316;52.298;9.056;2022-12-07T14:44:45;1.90;;;0.90;;
47589;SDS011;33316;52.298;9.056;2022-12-07T14:47:12;3.70;;;1.20;;
47589;SDS011;33316;52.298;9.056;2022-12-07T14:49:39;2.17;;;1.00;;
47589;SDS011;33316;52.298;9.056;2022-12-07T14:52:08;3.50;;;1.20;;
47589;SDS011;33316;52.298;9.056;2022-12-07T14:54:39;6.05;;;1.20;;
47589;SDS011;33316;52.298;9.056;2022-12-07T14:57:08;5.25;;;1.40;;
47589;SDS011;33316;52.298;9.056;2022-12-07T14:59:35;3.63;;;1.67;;
47589;SDS011;33316;52.298;9.056;2022-12-07T15:02:04;2.88;;;1.42;;
47589;SDS011;33316;52.298;9.056;2022-12-07T15:04:31;8.10;;;3.60;;
47589;SDS011;33316;52.298;9.056;2022-12-07T15:06:58;4.35;;;2.25;;
47589;SDS011;33316;52.298;9.056;2022-12-07T15:09:27;6.07;;;2.45;;
47589;SDS011;33316;52.298;9.056;2022-12-07T15:11:54;4.25;;;2.00;;
47589;SDS011;33316;52.298;9.056;2022-12-07T15:14:20;4.50;;;2.10;;
47589;SDS011;33316;52.298;9.056;2022-12-07T15:16:47;3.17;;;1.90;;
47589;SDS011;33316;52.298;9.056;2022-12-07T15:19:16;4.32;;;1.55;;
47589;SDS011;33316;52.298;9.056;2022-12-07T15:21:44;4.32;;;1.70;;
47589;SDS011;33316;52.298;9.056;2022-12-07T15:24:11;4.60;;;2.13;;
47589;SDS011;33316;52.298;9.056;2022-12-07T15:26:39;5.82;;;2.40;;
47589;SDS011;33316;52.298;9.056;2022-12-07T15:29:06;3.97;;;2.20;;
47589;SDS011;33316;52.298;9.056;2022-12-07T15:31:34;5.55;;;2.60;;
47589;SDS011;33316;52.298;9.056;2022-12-07T15:34:01;5.10;;;2.30;;